sensor_id;sensor_type;location;lat;lon;timestamp;temperature;humidity
17053;DHT22;8643;48.824;11.422;2023-02-01T00:04:15;3.10;99.90
17053;DHT22;8643;48.824;11.422;2023-02-01T00:06:44;3.10;99.90
17053;DHT22;8643;48.824;11.422;2023-02-01T00:09:13;3.10;99.90
17053;DHT22;8643;48.824;11.422;2023-02-01T00:14:11;4.00;99.90
17053;DHT22;8643;48.824;11.422;2023-02-01T00:16:40;3.10;99.90
17053;DHT22;8643;48.824;11.422;2023-02-01T00:19:12;3.00;99.90
17053;DHT22;8643;48.824;11.422;2023-02-01T00:24:12;3.70;99.90
17053;DHT22;8643;48.824;11.422;2023-02-01T00:26:43;3.00;99.90
17053;DHT22;8643;48.824;11.422;2023-02-01T00:29:16;2.90;99.90
17053;DHT22;8643;48.824;11.422;2023-02-01T00:34:18;3.70;99.90
17053;DHT22;8643;48.824;11.422;2023-02-01T00:36:47;3.00;99.90
17053;DHT22;8643;48.824;11.422;2023-02-01T00:39:16;3.00;99.90
17053;DHT22;8643;48.824;11.422;2023-02-01T00:44:16;2.80;99.90
17053;DHT22;8643;48.824;11.422;2023-02-01T00:49:14;2.90;99.90
17053;DHT22;8643;48.824;11.422;2023-02-01T00:51:42;2.80;99.90
17053;DHT22;8643;48.824;11.422;2023-02-01T00:54:10;2.80;99.90
17053;DHT22;8643;48.824;11.422;2023-02-01T00:56:39;2.80;99.90
17053;DHT22;8643;48.824;11.422;2023-02-01T00:59:10;2.80;99.90
17053;DHT22;8643;48.824;11.422;2023-02-01T01:01:40;2.90;99.90
17053;DHT22;8643;48.824;11.422;2023-02-01T01:04:09;2.90;99.90
17053;DHT22;8643;48.824;11.422;2023-02-01T01:06:37;2.90;99.90
17053;DHT22;8643;48.824;11.422;2023-02-01T01:09:07;2.90;99.90
17053;DHT22;8643;48.824;11.422;2023-02-01T01:11:37;2.90;99.90
17053;DHT22;8643;48.824;11.422;2023-02-01T01:14:09;2.90;99.90
17053;DHT22;8643;48.824;11.422;2023-02-01T01:16:40;2.90;99.90
17053;DHT22;8643;48.824;11.422;2023-02-01T01:19:11;2.90;99.90
17053;DHT22;8643;48.824;11.422;2023-02-01T01:21:41;2.80;99.90
17053;DHT22;8643;48.824;11.422;2023-02-01T01:24:09;3.70;99.90
17053;DHT22;8643;48.824;11.422;2023-02-01T01:26:38;2.90;99.90
17053;DHT22;8643;48.824;11.422;2023-02-01T01:29:08;2.90;99.90
17053;DHT22;8643;48.824;11.422;2023-02-01T01:31:37;2.80;99.90
17053;DHT22;8643;48.824;11.422;2023-02-01T01:34:08;3.00;99.90
17053;DHT22;8643;48.824;11.422;2023-02-01T01:36:36;2.80;99.90
17053;DHT22;8643;48.824;11.422;2023-02-01T01:39:05;2.90;99.90
17053;DHT22;8643;48.824;11.422;2023-02-01T01:41:34;2.80;99.90
17053;DHT22;8643;48.824;11.422;2023-02-01T01:44:57;2.90;99.90
17053;DHT22;8643;48.824;11.422;2023-02-01T01:47:34;2.90;99.90
17053;DHT22;8643;48.824;11.422;2023-02-01T01:50:08;2.90;99.90
17053;DHT22;8643;48.824;11.422;2023-02-01T01:52:41;1.80;99.90
17053;DHT22;8643;48.824;11.422;2023-02-01T01:55:14;3.10;99.90
17053;DHT22;8643;48.824;11.422;2023-02-01T01:57:48;3.10;99.90
17053;DHT22;8643;48.824;11.422;2023-02-01T02:00:21;3.10;99.90
17053;DHT22;8643;48.824;11.422;2023-02-01T02:02:59;3.10;99.90
17053;DHT22;8643;48.824;11.422;2023-02-01T02:05:31;3.20;99.90
17053;DHT22;8643;48.824;11.422;2023-02-01T02:10:29;3.20;99.90
17053;DHT22;8643;48.824;11.422;2023-02-01T02:13:13;3.20;99.90
17053;DHT22;8643;48.824;11.422;2023-02-01T02:15:49;3.30;99.90
17053;DHT22;8643;48.824;11.422;2023-02-01T02:18:37;3.30;99.90
17053;DHT22;8643;48.824;11.422;2023-02-01T02:21:28;3.30;99.90
17053;DHT22;8643;48.824;11.422;2023-02-01T02:24:28;3.30;99.90
17053;DHT22;8643;48.824;11.422;2023-02-01T02:27:15;3.30;99.90
17053;DHT22;8643;48.824;11.422;2023-02-01T02:30:18;3.40;99.90
17053;DHT22;8643;48.824;11.422;2023-02-01T02:33:42;3.40;99.90
17053;DHT22;8643;48.824;11.422;2023-02-01T02:36:27;3.40;99.90
17053;DHT22;8643;48.824;11.422;2023-02-01T02:39:07;3.50;99.90
17053;DHT22;8643;48.824;11.422;2023-02-01T02:41:51;3.50;99.90
17053;DHT22;8643;48.824;11.422;2023-02-01T02:45:03;3.50;99.90
17053;DHT22;8643;48.824;11.422;2023-02-01T02:47:56;4.90;99.90
17053;DHT22;8643;48.824;11.422;2023-02-01T02:50:36;3.40;99.90
17053;DHT22;8643;48.824;11.422;2023-02-01T02:53:32;3.50;99.90
17053;DHT22;8643;48.824;11.422;2023-02-01T02:56:23;3.40;99.90
17053;DHT22;8643;48.824;11.422;2023-02-01T02:59:14;3.40;99.90
17053;DHT22;8643;48.824;11.422;2023-02-01T03:02:06;3.40;99.90
17053;DHT22;8643;48.824;11.422;2023-02-01T03:04:53;3.40;99.90
17053;DHT22;8643;48.824;11.422;2023-02-01T03:07:54;3.40;99.90
17053;DHT22;8643;48.824;11.422;2023-02-01T03:10:42;3.40;99.90
17053;DHT22;8643;48.824;11.422;2023-02-01T03:13:23;3.40;99.90
17053;DHT22;8643;48.824;11.422;2023-02-01T03:16:01;3.50;99.90
17053;DHT22;8643;48.824;11.422;2023-02-01T03:21:16;3.50;99.90
17053;DHT22;8643;48.824;11.422;2023-02-01T03:23:53;3.50;99.90
17053;DHT22;8643;48.824;11.422;2023-02-01T03:26:28;3.50;99.90
17053;DHT22;8643;48.824;11.422;2023-02-01T03:29:05;3.50;99.90
17053;DHT22;8643;48.824;11.422;2023-02-01T03:31:42;3.50;99.90
17053;DHT22;8643;48.824;11.422;2023-02-01T03:34:11;3.50;99.90
17053;DHT22;8643;48.824;11.422;2023-02-01T03:36:56;3.50;99.90
17053;DHT22;8643;48.824;11.422;2023-02-01T03:39:32;3.60;99.90
17053;DHT22;8643;48.824;11.422;2023-02-01T03:42:06;3.60;99.90
17053;DHT22;8643;48.824;11.422;2023-02-01T03:44:47;3.60;99.90
17053;DHT22;8643;48.824;11.422;2023-02-01T03:47:25;3.60;99.90
17053;DHT22;8643;48.824;11.422;2023-02-01T03:50:03;3.60;99.90
17053;DHT22;8643;48.824;11.422;2023-02-01T03:52:39;3.30;99.90
17053;DHT22;8643;48.824;11.422;2023-02-01T03:55:14;3.60;99.90
17053;DHT22;8643;48.824;11.422;2023-02-01T03:57:48;3.60;99.90
17053;DHT22;8643;48.824;11.422;2023-02-01T04:00:24;3.60;99.90
17053;DHT22;8643;48.824;11.422;2023-02-01T04:02:56;4.60;99.90
17053;DHT22;8643;48.824;11.422;2023-02-01T04:05:24;3.60;99.90
17053;DHT22;8643;48.824;11.422;2023-02-01T04:08:00;3.60;99.90
17053;DHT22;8643;48.824;11.422;2023-02-01T04:10:30;3.50;99.90
17053;DHT22;8643;48.824;11.422;2023-02-01T04:12:59;3.50;99.90
17053;DHT22;8643;48.824;11.422;2023-02-01T04:15:31;4.60;99.90
17053;DHT22;8643;48.824;11.422;2023-02-01T04:18:01;3.60;99.90
17053;DHT22;8643;48.824;11.422;2023-02-01T04:20:29;3.60;99.90
17053;DHT22;8643;48.824;11.422;2023-02-01T04:22:58;3.60;99.90
17053;DHT22;8643;48.824;11.422;2023-02-01T04:25:30;3.60;99.90
17053;DHT22;8643;48.824;11.422;2023-02-01T04:27:59;3.60;99.90
17053;DHT22;8643;48.824;11.422;2023-02-01T04:30:28;3.50;99.90
17053;DHT22;8643;48.824;11.422;2023-02-01T04:32:56;3.60;99.90
17053;DHT22;8643;48.824;11.422;2023-02-01T04:35:25;3.50;99.90
17053;DHT22;8643;48.824;11.422;2023-02-01T04:37:53;3.40;99.90
17053;DHT22;8643;48.824;11.422;2023-02-01T04:40:22;3.40;99.90
17053;DHT22;8643;48.824;11.422;2023-02-01T04:42:52;3.40;99.90
17053;DHT22;8643;48.824;11.422;2023-02-01T04:45:20;3.40;99.90
17053;DHT22;8643;48.824;11.422;2023-02-01T04:52:47;3.50;99.90
17053;DHT22;8643;48.824;11.422;2023-02-01T04:55:16;3.50;99.90
17053;DHT22;8643;48.824;11.422;2023-02-01T04:57:44;3.50;99.90
17053;DHT22;8643;48.824;11.422;2023-02-01T05:00:15;3.30;99.90
17053;DHT22;8643;48.824;11.422;2023-02-01T05:05:13;3.50;99.90
17053;DHT22;8643;48.824;11.422;2023-02-01T05:07:41;3.40;99.90
17053;DHT22;8643;48.824;11.422;2023-02-01T05:10:10;3.40;99.90
17053;DHT22;8643;48.824;11.422;2023-02-01T05:12:38;2.00;99.90
17053;DHT22;8643;48.824;11.422;2023-02-01T05:15:26;3.40;99.90
17053;DHT22;8643;48.824;11.422;2023-02-01T05:17:54;3.40;99.90
17053;DHT22;8643;48.824;11.422;2023-02-01T05:20:23;3.40;99.90
17053;DHT22;8643;48.824;11.422;2023-02-01T05:22:52;3.40;99.90
17053;DHT22;8643;48.824;11.422;2023-02-01T05:25:24;3.40;99.90
17053;DHT22;8643;48.824;11.422;2023-02-01T05:27:53;3.40;99.90
17053;DHT22;8643;48.824;11.422;2023-02-01T05:30:22;3.40;99.90
17053;DHT22;8643;48.824;11.422;2023-02-01T05:32:52;3.40;99.90
17053;DHT22;8643;48.824;11.422;2023-02-01T05:35:21;3.40;99.90
17053;DHT22;8643;48.824;11.422;2023-02-01T05:37:50;3.30;99.90
17053;DHT22;8643;48.824;11.422;2023-02-01T05:40:19;3.30;99.90
17053;DHT22;8643;48.824;11.422;2023-02-01T05:47:48;3.30;99.90
17053;DHT22;8643;48.824;11.422;2023-02-01T05:50:22;3.70;99.90
17053;DHT22;8643;48.824;11.422;2023-02-01T05:52:56;3.40;99.90
17053;DHT22;8643;48.824;11.422;2023-02-01T05:55:24;3.50;99.90
17053;DHT22;8643;48.824;11.422;2023-02-01T06:00:25;3.60;99.90
17053;DHT22;8643;48.824;11.422;2023-02-01T06:02:54;3.50;99.90
17053;DHT22;8643;48.824;11.422;2023-02-01T06:05:24;3.60;99.90
17053;DHT22;8643;48.824;11.422;2023-02-01T06:07:53;3.60;99.90
17053;DHT22;8643;48.824;11.422;2023-02-01T06:12:50;3.60;99.90
17053;DHT22;8643;48.824;11.422;2023-02-01T06:17:48;3.70;99.90
17053;DHT22;8643;48.824;11.422;2023-02-01T06:20:16;3.70;99.90
17053;DHT22;8643;48.824;11.422;2023-02-01T06:22:47;3.60;99.90
17053;DHT22;8643;48.824;11.422;2023-02-01T06:25:15;3.70;99.90
17053;DHT22;8643;48.824;11.422;2023-02-01T06:27:44;3.70;99.90
17053;DHT22;8643;48.824;11.422;2023-02-01T06:30:13;3.70;99.90
17053;DHT22;8643;48.824;11.422;2023-02-01T06:35:12;3.80;99.90
17053;DHT22;8643;48.824;11.422;2023-02-01T06:37:43;3.70;99.90
17053;DHT22;8643;48.824;11.422;2023-02-01T06:40:14;5.00;99.90
17053;DHT22;8643;48.824;11.422;2023-02-01T06:42:42;3.70;99.90
17053;DHT22;8643;48.824;11.422;2023-02-01T06:45:10;3.80;99.90
17053;DHT22;8643;48.824;11.422;2023-02-01T06:47:39;3.80;99.90
17053;DHT22;8643;48.824;11.422;2023-02-01T06:50:09;3.70;99.90
17053;DHT22;8643;48.824;11.422;2023-02-01T06:52:38;3.80;99.90
17053;DHT22;8643;48.824;11.422;2023-02-01T06:55:07;4.70;99.90
17053;DHT22;8643;48.824;11.422;2023-02-01T06:57:37;3.80;99.90
17053;DHT22;8643;48.824;11.422;2023-02-01T07:02:36;3.10;99.90
17053;DHT22;8643;48.824;11.422;2023-02-01T07:05:05;3.80;99.90
17053;DHT22;8643;48.824;11.422;2023-02-01T07:07:34;3.80;99.90
17053;DHT22;8643;48.824;11.422;2023-02-01T07:10:03;3.80;99.90
17053;DHT22;8643;48.824;11.422;2023-02-01T07:15:02;3.70;99.90
17053;DHT22;8643;48.824;11.422;2023-02-01T07:17:31;3.70;99.90
17053;DHT22;8643;48.824;11.422;2023-02-01T07:19:59;3.70;99.90
17053;DHT22;8643;48.824;11.422;2023-02-01T07:22:28;3.80;99.90
17053;DHT22;8643;48.824;11.422;2023-02-01T07:24:57;3.70;99.90
17053;DHT22;8643;48.824;11.422;2023-02-01T07:27:25;2.30;99.90
17053;DHT22;8643;48.824;11.422;2023-02-01T07:29:53;3.70;99.90
17053;DHT22;8643;48.824;11.422;2023-02-01T07:32:23;3.60;99.90
17053;DHT22;8643;48.824;11.422;2023-02-01T07:37:20;3.60;99.90
17053;DHT22;8643;48.824;11.422;2023-02-01T07:39:50;3.60;99.90
17053;DHT22;8643;48.824;11.422;2023-02-01T07:42:19;3.70;99.90
17053;DHT22;8643;48.824;11.422;2023-02-01T07:44:48;3.60;99.90
17053;DHT22;8643;48.824;11.422;2023-02-01T07:49:46;3.50;99.90
17053;DHT22;8643;48.824;11.422;2023-02-01T07:52:14;4.40;99.90
17053;DHT22;8643;48.824;11.422;2023-02-01T07:54:43;3.40;99.90
17053;DHT22;8643;48.824;11.422;2023-02-01T07:57:12;3.40;99.90
17053;DHT22;8643;48.824;11.422;2023-02-01T07:59:40;3.40;99.90
17053;DHT22;8643;48.824;11.422;2023-02-01T08:02:38;3.30;99.90
17053;DHT22;8643;48.824;11.422;2023-02-01T08:05:08;3.20;99.90
17053;DHT22;8643;48.824;11.422;2023-02-01T08:07:37;3.30;99.90
17053;DHT22;8643;48.824;11.422;2023-02-01T08:10:06;3.20;99.90
17053;DHT22;8643;48.824;11.422;2023-02-01T08:12:37;3.20;99.90
17053;DHT22;8643;48.824;11.422;2023-02-01T08:15:09;1.90;99.90
17053;DHT22;8643;48.824;11.422;2023-02-01T08:17:38;3.10;99.90
17053;DHT22;8643;48.824;11.422;2023-02-01T08:20:10;3.20;99.90
17053;DHT22;8643;48.824;11.422;2023-02-01T08:22:40;3.20;99.90
17053;DHT22;8643;48.824;11.422;2023-02-01T08:25:09;3.20;99.90
17053;DHT22;8643;48.824;11.422;2023-02-01T08:27:38;3.10;99.90
17053;DHT22;8643;48.824;11.422;2023-02-01T08:30:08;3.20;99.90
17053;DHT22;8643;48.824;11.422;2023-02-01T08:32:37;3.20;99.90
17053;DHT22;8643;48.824;11.422;2023-02-01T08:37:36;3.10;99.90
17053;DHT22;8643;48.824;11.422;2023-02-01T08:40:06;3.20;99.90
17053;DHT22;8643;48.824;11.422;2023-02-01T08:42:36;3.10;99.90
17053;DHT22;8643;48.824;11.422;2023-02-01T08:45:22;3.10;99.90
17053;DHT22;8643;48.824;11.422;2023-02-01T08:47:57;3.10;99.90
17053;DHT22;8643;48.824;11.422;2023-02-01T08:50:27;3.20;99.90
17053;DHT22;8643;48.824;11.422;2023-02-01T08:57:53;3.20;99.90
17053;DHT22;8643;48.824;11.422;2023-02-01T09:00:22;3.30;99.90
17053;DHT22;8643;48.824;11.422;2023-02-01T09:02:51;3.40;99.90
17053;DHT22;8643;48.824;11.422;2023-02-01T09:05:19;3.50;99.90
17053;DHT22;8643;48.824;11.422;2023-02-01T09:07:50;3.60;99.90
17053;DHT22;8643;48.824;11.422;2023-02-01T09:10:19;3.60;99.90
17053;DHT22;8643;48.824;11.422;2023-02-01T09:13:00;3.70;99.90
17053;DHT22;8643;48.824;11.422;2023-02-01T09:15:30;3.70;99.90
17053;DHT22;8643;48.824;11.422;2023-02-01T09:17:58;5.10;99.90
17053;DHT22;8643;48.824;11.422;2023-02-01T09:20:27;3.90;99.90
17053;DHT22;8643;48.824;11.422;2023-02-01T09:22:58;3.80;99.90
17053;DHT22;8643;48.824;11.422;2023-02-01T09:25:26;3.80;99.90
17053;DHT22;8643;48.824;11.422;2023-02-01T09:27:55;3.80;99.90
17053;DHT22;8643;48.824;11.422;2023-02-01T09:30:23;3.80;99.90
17053;DHT22;8643;48.824;11.422;2023-02-01T09:32:52;4.10;99.90
17053;DHT22;8643;48.824;11.422;2023-02-01T09:35:20;3.70;99.90
17053;DHT22;8643;48.824;11.422;2023-02-01T09:40:20;5.50;99.90
17053;DHT22;8643;48.824;11.422;2023-02-01T09:45:56;3.80;99.90
17053;DHT22;8643;48.824;11.422;2023-02-01T09:48:34;3.80;99.90
17053;DHT22;8643;48.824;11.422;2023-02-01T09:51:12;3.80;99.90
17053;DHT22;8643;48.824;11.422;2023-02-01T09:53:55;4.90;99.90
17053;DHT22;8643;48.824;11.422;2023-02-01T09:56:35;3.90;99.90
17053;DHT22;8643;48.824;11.422;2023-02-01T09:59:13;4.00;99.90
17053;DHT22;8643;48.824;11.422;2023-02-01T10:04:20;3.90;99.90
17053;DHT22;8643;48.824;11.422;2023-02-01T10:07:01;3.90;99.90
17053;DHT22;8643;48.824;11.422;2023-02-01T10:09:48;3.80;99.90
17053;DHT22;8643;48.824;11.422;2023-02-01T10:21:51;3.80;99.90
17053;DHT22;8643;48.824;11.422;2023-02-01T10:24:39;4.00;99.90
17053;DHT22;8643;48.824;11.422;2023-02-01T10:27:17;3.80;99.90
17053;DHT22;8643;48.824;11.422;2023-02-01T10:29:53;3.70;99.90
17053;DHT22;8643;48.824;11.422;2023-02-01T10:32:29;3.70;99.90
17053;DHT22;8643;48.824;11.422;2023-02-01T10:35:12;3.80;99.90
17053;DHT22;8643;48.824;11.422;2023-02-01T10:37:44;3.80;99.90
17053;DHT22;8643;48.824;11.422;2023-02-01T10:40:17;3.90;99.90
17053;DHT22;8643;48.824;11.422;2023-02-01T10:42:50;3.90;99.90
17053;DHT22;8643;48.824;11.422;2023-02-01T10:45:24;2.40;99.90
17053;DHT22;8643;48.824;11.422;2023-02-01T10:47:57;4.10;99.90
17053;DHT22;8643;48.824;11.422;2023-02-01T10:50:34;3.90;99.90
17053;DHT22;8643;48.824;11.422;2023-02-01T10:53:11;3.80;99.90
17053;DHT22;8643;48.824;11.422;2023-02-01T10:55:49;3.80;99.90
17053;DHT22;8643;48.824;11.422;2023-02-01T10:58:25;4.30;99.90
17053;DHT22;8643;48.824;11.422;2023-02-01T11:01:02;3.70;99.90
17053;DHT22;8643;48.824;11.422;2023-02-01T11:03:36;3.70;99.90
17053;DHT22;8643;48.824;11.422;2023-02-01T11:08:57;3.40;99.90
17053;DHT22;8643;48.824;11.422;2023-02-01T11:11:28;3.30;99.90
17053;DHT22;8643;48.824;11.422;2023-02-01T11:13:58;3.10;99.90
17053;DHT22;8643;48.824;11.422;2023-02-01T11:16:33;3.10;99.90
17053;DHT22;8643;48.824;11.422;2023-02-01T11:19:04;3.00;99.90
17053;DHT22;8643;48.824;11.422;2023-02-01T11:21:33;3.00;99.90
17053;DHT22;8643;48.824;11.422;2023-02-01T11:24:06;3.00;99.90
17053;DHT22;8643;48.824;11.422;2023-02-01T11:26:45;1.50;99.90
17053;DHT22;8643;48.824;11.422;2023-02-01T11:29:17;3.10;99.90
17053;DHT22;8643;48.824;11.422;2023-02-01T11:31:50;3.10;99.90
17053;DHT22;8643;48.824;11.422;2023-02-01T11:34:22;3.20;99.90
17053;DHT22;8643;48.824;11.422;2023-02-01T11:36:57;3.20;99.90
17053;DHT22;8643;48.824;11.422;2023-02-01T11:39:31;3.10;99.90
17053;DHT22;8643;48.824;11.422;2023-02-01T11:42:05;3.20;99.90
17053;DHT22;8643;48.824;11.422;2023-02-01T11:44:43;3.20;99.90
17053;DHT22;8643;48.824;11.422;2023-02-01T11:47:24;3.30;99.90
17053;DHT22;8643;48.824;11.422;2023-02-01T11:49:55;3.50;99.90
17053;DHT22;8643;48.824;11.422;2023-02-01T11:52:43;3.60;99.90
17053;DHT22;8643;48.824;11.422;2023-02-01T11:55:55;3.90;99.90
17053;DHT22;8643;48.824;11.422;2023-02-01T11:58:50;4.20;99.90
17053;DHT22;8643;48.824;11.422;2023-02-01T12:01:53;4.50;99.90
17053;DHT22;8643;48.824;11.422;2023-02-01T12:05:03;4.90;99.90
17053;DHT22;8643;48.824;11.422;2023-02-01T12:08:02;5.20;99.90
17053;DHT22;8643;48.824;11.422;2023-02-01T12:10:55;5.20;99.90
17053;DHT22;8643;48.824;11.422;2023-02-01T12:13:44;5.10;99.90
17053;DHT22;8643;48.824;11.422;2023-02-01T12:16:29;4.90;99.90
17053;DHT22;8643;48.824;11.422;2023-02-01T12:19:32;3.30;99.90
17053;DHT22;8643;48.824;11.422;2023-02-01T12:22:24;4.40;99.90
17053;DHT22;8643;48.824;11.422;2023-02-01T12:28:33;4.10;99.90
17053;DHT22;8643;48.824;11.422;2023-02-01T12:31:29;4.40;99.90
17053;DHT22;8643;48.824;11.422;2023-02-01T12:34:21;4.10;99.90
17053;DHT22;8643;48.824;11.422;2023-02-01T12:37:05;4.10;99.90
17053;DHT22;8643;48.824;11.422;2023-02-01T12:39:52;4.00;99.90
17053;DHT22;8643;48.824;11.422;2023-02-01T12:42:32;4.10;99.90
17053;DHT22;8643;48.824;11.422;2023-02-01T12:45:12;4.10;99.90
17053;DHT22;8643;48.824;11.422;2023-02-01T12:47:49;4.10;99.90
17053;DHT22;8643;48.824;11.422;2023-02-01T12:50:25;4.10;99.90
17053;DHT22;8643;48.824;11.422;2023-02-01T12:53:07;4.10;99.90
17053;DHT22;8643;48.824;11.422;2023-02-01T12:55:50;4.10;99.90
17053;DHT22;8643;48.824;11.422;2023-02-01T12:58:24;4.10;99.90
17053;DHT22;8643;48.824;11.422;2023-02-01T13:00:59;3.10;99.90
17053;DHT22;8643;48.824;11.422;2023-02-01T13:03:36;5.60;99.90
17053;DHT22;8643;48.824;11.422;2023-02-01T13:06:12;4.10;99.90
17053;DHT22;8643;48.824;11.422;2023-02-01T13:08:48;4.00;99.90
17053;DHT22;8643;48.824;11.422;2023-02-01T13:11:27;4.00;99.90
17053;DHT22;8643;48.824;11.422;2023-02-01T13:14:02;4.00;99.90
17053;DHT22;8643;48.824;11.422;2023-02-01T13:16:38;4.10;99.90
17053;DHT22;8643;48.824;11.422;2023-02-01T13:19:14;4.00;99.90
17053;DHT22;8643;48.824;11.422;2023-02-01T13:21:49;4.00;99.90
17053;DHT22;8643;48.824;11.422;2023-02-01T13:24:30;4.60;99.90
17053;DHT22;8643;48.824;11.422;2023-02-01T13:27:05;5.30;99.90
17053;DHT22;8643;48.824;11.422;2023-02-01T13:29:44;6.20;99.90
17053;DHT22;8643;48.824;11.422;2023-02-01T13:42:50;4.30;99.90
17053;DHT22;8643;48.824;11.422;2023-02-01T13:45:23;4.30;99.90
17053;DHT22;8643;48.824;11.422;2023-02-01T13:47:57;4.20;99.90
17053;DHT22;8643;48.824;11.422;2023-02-01T13:50:31;4.30;99.90
17053;DHT22;8643;48.824;11.422;2023-02-01T13:53:20;4.20;99.90
17053;DHT22;8643;48.824;11.422;2023-02-01T13:55:58;4.30;99.90
17053;DHT22;8643;48.824;11.422;2023-02-01T13:58:34;4.30;99.90
17053;DHT22;8643;48.824;11.422;2023-02-01T14:04:48;4.40;99.90
17053;DHT22;8643;48.824;11.422;2023-02-01T14:07:20;4.50;99.90
17053;DHT22;8643;48.824;11.422;2023-02-01T14:09:50;4.50;99.90
17053;DHT22;8643;48.824;11.422;2023-02-01T14:12:43;4.60;99.90
17053;DHT22;8643;48.824;11.422;2023-02-01T14:15:21;4.60;99.90
17053;DHT22;8643;48.824;11.422;2023-02-01T14:17:52;4.50;99.90
17053;DHT22;8643;48.824;11.422;2023-02-01T14:20:47;4.50;99.90
17053;DHT22;8643;48.824;11.422;2023-02-01T14:23:27;4.50;99.90
17053;DHT22;8643;48.824;11.422;2023-02-01T14:26:19;4.50;99.90
17053;DHT22;8643;48.824;11.422;2023-02-01T14:28:53;4.50;99.90
17053;DHT22;8643;48.824;11.422;2023-02-01T14:31:42;4.60;99.90
17053;DHT22;8643;48.824;11.422;2023-02-01T14:34:19;4.50;99.90
17053;DHT22;8643;48.824;11.422;2023-02-01T14:36:59;4.90;99.90
17053;DHT22;8643;48.824;11.422;2023-02-01T14:39:34;4.50;99.90
17053;DHT22;8643;48.824;11.422;2023-02-01T14:42:23;4.50;99.90
17053;DHT22;8643;48.824;11.422;2023-02-01T14:44:55;4.40;99.90
17053;DHT22;8643;48.824;11.422;2023-02-01T14:47:44;4.40;99.90
17053;DHT22;8643;48.824;11.422;2023-02-01T14:50:27;4.30;99.90
17053;DHT22;8643;48.824;11.422;2023-02-01T14:53:18;4.40;99.90
17053;DHT22;8643;48.824;11.422;2023-02-01T14:55:53;4.50;99.90
17053;DHT22;8643;48.824;11.422;2023-02-01T14:58:35;4.50;99.90
17053;DHT22;8643;48.824;11.422;2023-02-01T15:01:17;4.50;99.90
17053;DHT22;8643;48.824;11.422;2023-02-01T15:03:55;4.60;99.90
17053;DHT22;8643;48.824;11.422;2023-02-01T15:06:32;4.60;99.90
17053;DHT22;8643;48.824;11.422;2023-02-01T15:09:11;4.50;99.90
17053;DHT22;8643;48.824;11.422;2023-02-01T15:12:00;4.60;99.90
17053;DHT22;8643;48.824;11.422;2023-02-01T15:14:33;4.60;99.90
17053;DHT22;8643;48.824;11.422;2023-02-01T15:17:18;4.60;99.90
17053;DHT22;8643;48.824;11.422;2023-02-01T15:19:56;4.50;99.90
17053;DHT22;8643;48.824;11.422;2023-02-01T15:22:27;4.50;99.90
17053;DHT22;8643;48.824;11.422;2023-02-01T15:24:59;5.60;99.90
17053;DHT22;8643;48.824;11.422;2023-02-01T15:27:36;4.40;99.90
17053;DHT22;8643;48.824;11.422;2023-02-01T15:30:06;4.60;99.90
17053;DHT22;8643;48.824;11.422;2023-02-01T15:32:37;4.50;99.90
17053;DHT22;8643;48.824;11.422;2023-02-01T15:35:36;4.60;99.90
17053;DHT22;8643;48.824;11.422;2023-02-01T15:38:21;4.60;99.90
17053;DHT22;8643;48.824;11.422;2023-02-01T15:41:02;4.60;99.90
17053;DHT22;8643;48.824;11.422;2023-02-01T15:43:37;4.60;99.90
17053;DHT22;8643;48.824;11.422;2023-02-01T15:46:10;4.50;99.90
17053;DHT22;8643;48.824;11.422;2023-02-01T15:48:45;4.50;99.90
17053;DHT22;8643;48.824;11.422;2023-02-01T15:51:18;4.50;99.90
17053;DHT22;8643;48.824;11.422;2023-02-01T15:53:51;4.40;99.90
17053;DHT22;8643;48.824;11.422;2023-02-01T15:56:25;4.50;99.90
17053;DHT22;8643;48.824;11.422;2023-02-01T15:59:01;4.50;99.90
17053;DHT22;8643;48.824;11.422;2023-02-01T16:01:36;4.50;99.90
17053;DHT22;8643;48.824;11.422;2023-02-01T16:04:16;4.40;99.90
17053;DHT22;8643;48.824;11.422;2023-02-01T16:06:49;4.20;99.90
17053;DHT22;8643;48.824;11.422;2023-02-01T16:09:21;4.20;99.90
17053;DHT22;8643;48.824;11.422;2023-02-01T16:11:58;3.40;99.90
17053;DHT22;8643;48.824;11.422;2023-02-01T16:14:32;4.00;99.90
17053;DHT22;8643;48.824;11.422;2023-02-01T16:17:00;4.00;99.90
17053;DHT22;8643;48.824;11.422;2023-02-01T16:19:29;5.30;99.90
17053;DHT22;8643;48.824;11.422;2023-02-01T16:21:58;4.00;99.90
17053;DHT22;8643;48.824;11.422;2023-02-01T16:26:56;4.10;99.90
17053;DHT22;8643;48.824;11.422;2023-02-01T16:29:25;4.10;99.90
17053;DHT22;8643;48.824;11.422;2023-02-01T16:31:57;4.20;99.90
17053;DHT22;8643;48.824;11.422;2023-02-01T16:34:25;4.20;99.90
17053;DHT22;8643;48.824;11.422;2023-02-01T16:36:54;4.30;99.90
17053;DHT22;8643;48.824;11.422;2023-02-01T16:39:24;4.40;99.90
17053;DHT22;8643;48.824;11.422;2023-02-01T16:44:27;4.80;99.90
17053;DHT22;8643;48.824;11.422;2023-02-01T16:46:55;4.30;99.90
17053;DHT22;8643;48.824;11.422;2023-02-01T16:49:24;4.30;99.90
17053;DHT22;8643;48.824;11.422;2023-02-01T16:51:57;4.40;99.90
17053;DHT22;8643;48.824;11.422;2023-02-01T16:54:26;4.40;99.90
17053;DHT22;8643;48.824;11.422;2023-02-01T16:56:56;7.60;99.90
17053;DHT22;8643;48.824;11.422;2023-02-01T17:01:53;5.80;99.90
17053;DHT22;8643;48.824;11.422;2023-02-01T17:04:22;4.50;99.90
17053;DHT22;8643;48.824;11.422;2023-02-01T17:06:50;4.50;99.90
17053;DHT22;8643;48.824;11.422;2023-02-01T17:09:18;4.40;99.90
17053;DHT22;8643;48.824;11.422;2023-02-01T17:11:49;4.40;99.90
17053;DHT22;8643;48.824;11.422;2023-02-01T17:14:20;4.40;99.90
17053;DHT22;8643;48.824;11.422;2023-02-01T17:16:49;4.40;99.90
17053;DHT22;8643;48.824;11.422;2023-02-01T17:19:21;4.50;99.90
17053;DHT22;8643;48.824;11.422;2023-02-01T17:21:52;4.50;99.90
17053;DHT22;8643;48.824;11.422;2023-02-01T17:24:24;4.40;99.90
17053;DHT22;8643;48.824;11.422;2023-02-01T17:27:04;3.50;99.90
17053;DHT22;8643;48.824;11.422;2023-02-01T17:29:35;4.50;99.90
17053;DHT22;8643;48.824;11.422;2023-02-01T17:32:04;4.40;99.90
17053;DHT22;8643;48.824;11.422;2023-02-01T17:37:01;4.50;99.90
17053;DHT22;8643;48.824;11.422;2023-02-01T17:39:33;4.40;99.90
17053;DHT22;8643;48.824;11.422;2023-02-01T17:44:49;4.50;99.90
17053;DHT22;8643;48.824;11.422;2023-02-01T17:49:47;4.50;99.90
17053;DHT22;8643;48.824;11.422;2023-02-01T17:54:52;4.50;99.90
17053;DHT22;8643;48.824;11.422;2023-02-01T17:57:21;4.60;99.90
17053;DHT22;8643;48.824;11.422;2023-02-01T17:59:51;4.60;99.90
17053;DHT22;8643;48.824;11.422;2023-02-01T18:02:21;4.60;99.90
17053;DHT22;8643;48.824;11.422;2023-02-01T18:07:19;4.50;99.90
17053;DHT22;8643;48.824;11.422;2023-02-01T18:12:19;4.50;99.90
17053;DHT22;8643;48.824;11.422;2023-02-01T18:14:50;4.40;99.90
17053;DHT22;8643;48.824;11.422;2023-02-01T18:19:47;4.50;99.90
17053;DHT22;8643;48.824;11.422;2023-02-01T18:22:18;4.40;99.90
17053;DHT22;8643;48.824;11.422;2023-02-01T18:24:50;4.50;99.90
17053;DHT22;8643;48.824;11.422;2023-02-01T18:27:22;4.50;99.90
17053;DHT22;8643;48.824;11.422;2023-02-01T18:29:55;4.50;99.90
17053;DHT22;8643;48.824;11.422;2023-02-01T18:32:23;3.90;99.90
17053;DHT22;8643;48.824;11.422;2023-02-01T18:39:49;4.50;99.90
17053;DHT22;8643;48.824;11.422;2023-02-01T18:42:17;4.50;99.90